EST,Max TemperatureF,Mean TemperatureF,Min TemperatureF,Max Dew PointF,MeanDew PointF,Min DewpointF,Max Humidity, Mean Humidity, Min Humidity, Max Sea Level PressureIn, Mean Sea Level PressureIn, Min Sea Level PressureIn, Max VisibilityMiles, Mean VisibilityMiles, Min VisibilityMiles, Max Wind SpeedMPH, Mean Wind SpeedMPH, Max Gust SpeedMPH,PrecipitationIn, CloudCover, Events, WindDirDegrees
2012-1-1,69,52,35,61,48,36,100,87,68,30.23,30.16,30.08,10,9,0,16,3,22,0.00,4,Fog-Rain,255
2012-1-2,51,45,39,36,23,10,70,43,22,30.27,30.17,30.09,10,10,10,20,10,29,0.00,0,,305
2012-1-3,39,34,28,14,10,5,51,39,28,30.47,30.36,30.26,10,10,10,18,11,28,0.00,0,,323
2012-1-4,50,34,19,19,15,10,93,53,20,30.48,30.37,30.27,10,10,10,10,2,17,0.00,0,,248
2012-1-5,62,48,35,36,31,18,87,60,32,30.27,30.19,30.14,10,10,10,13,6,18,0.00,0,,275
2012-1-6,66,48,30,41,34,30,100,71,28,30.21,30.15,30.10,10,10,10,12,2,16,0.00,0,,262
2012-1-7,71,54,37,55,47,36,100,81,53,30.17,30.12,30.08,10,10,5,13,3,20,0.00,3,,257
2012-1-8,71,56,42,57,51,43,100,82,50,30.26,30.20,30.16,10,8,0,8,1,,0.00,6,Fog-Rain,254
2012-1-9,73,62,51,63,56,52,100,87,57,30.24,30.18,30.11,10,10,5,12,2,17,0.00,6,Rain,235
2012-1-10,60,51,42,59,51,43,100,97,82,30.12,30.06,29.96,10,6,0,4,0,,0.00,5,Fog-Rain,100
2012-1-11,66,57,48,61,51,41,100,80,49,29.89,29.75,29.64,10,9,5,21,7,30,0.00,4,Rain-Thunderstorm,211
2012-1-12,68,54,41,55,44,36,93,75,43,29.88,29.78,29.66,10,10,10,23,7,33,0.00,4,,243
2012-1-13,44,37,30,27,21,19,75,53,37,30.21,30.11,29.98,10,10,10,17,11,31,0.00,0,,281
2012-1-14,51,40,28,23,21,16,80,53,28,30.38,30.29,30.24,10,10,10,14,6,18,0.00,0,,271
2012-1-15,59,46,32,30,26,18,93,55,21,30.50,30.40,30.26,10,10,10,10,6,,0.00,0,,301
2012-1-16,62,46,30,46,36,28,100,70,38,30.57,30.47,30.39,10,10,10,10,3,16,0.00,2,,160
2012-1-17,68,54,41,59,52,41,100,85,64,30.36,30.21,30.03,10,9,2,16,5,25,0.00,4,Rain,211
2012-1-18,60,48,37,59,44,30,100,72,36,30.12,30.06,29.97,10,10,3,13,7,17,0.00,3,Rain,294
2012-1-19,59,44,28,36,29,19,100,69,22,30.24,30.15,30.10,10,10,10,5,1,,0.00,0,,308
2012-1-20,64,52,41,54,41,32,94,66,39,30.16,30.12,30.08,10,10,3,12,4,17,0.00,8,Rain,201
2012-1-21,66,62,59,61,55,50,94,82,72,30.08,30.04,30.02,10,10,10,10,8,17,0.00,6,,224
2012-1-22,62,56,50,59,55,50,100,96,82,30.23,30.17,30.08,10,5,0,10,5,16,0.00,8,Fog-Rain,87
2012-1-23,64,57,50,63,55,50,100,97,88,30.21,30.11,30.02,10,5,0,13,7,18,0.00,7,Fog-Rain,152
2012-1-24,69,56,41,63,52,41,100,83,43,30.24,30.17,30.06,10,9,3,7,3,,0.00,2,,295
2012-1-25,71,53,35,54,46,36,100,77,46,30.29,30.22,30.14,10,10,10,8,2,,0.00,1,,104
2012-1-26,75,65,55,63,59,55,100,87,57,30.16,30.04,29.87,10,6,0,12,5,,0.00,6,Fog,167
2012-1-27,64,55,42,63,50,39,94,72,45,30.07,29.91,29.78,10,10,10,17,10,26,0.00,5,Rain,277
2012-1-28,64,48,33,45,38,32,100,73,40,30.22,30.15,30.08,10,10,10,10,2,17,0.00,0,,299
2012-1-29,59,47,35,34,25,10,70,45,16,30.45,30.36,30.27,10,10,10,9,3,,0.00,0,,352
2012-1-30,64,46,28,32,26,18,100,62,16,30.48,30.42,30.39,10,10,10,8,1,,0.00,0,,294
2012-1-31,68,49,30,43,34,30,100,68,26,30.46,30.40,30.33,10,10,10,9,2,,0.00,0,,183